Time;durP1;ratioP1;P1;durP2;ratioP2;P2;SDS_P1;SDS_P2;PMS_P1;PMS_P2;Temp;Humidity;BMP_temperature;BMP_pressure;BME280_temperature;BME280_humidity;BME280_pressure;Samples;Min_cycle;Max_cycle;Signal;HPM_P1;HPM_P2
2022/08/03 05:56:34;;;;;;;4.85;3.75;;;;;;;22.54;68.38;100618.66;5011608;27;20175;-88
2022/08/03 05:59:52;;;;;;;5.50;4.05;;;;;;;22.72;67.74;100618.38;5370414;27;34340;31
2022/08/03 06:03:13;;;;;;;7.82;3.97;;;;;;;22.78;67.59;100622.00;5329210;27;32016;-86
2022/08/03 06:06:16;;;;;;;6.12;4.18;;;;;;;22.97;67.06;100620.69;5300716;33;33667;-87
2022/08/03 06:09:19;;;;;;;4.00;3.60;;;;;;;23.13;66.33;100621.69;5299598;33;34244;-86
2022/08/03 06:12:21;;;;;;;4.72;3.83;;;;;;;23.35;65.68;100621.69;5304776;33;34014;-87
2022/08/03 06:15:24;;;;;;;4.37;3.70;;;;;;;23.49;64.93;100624.91;5303208;33;33961;-87
2022/08/03 06:18:27;;;;;;;5.05;3.70;;;;;;;23.75;64.12;100626.84;5323180;27;32217;-86
2022/08/03 06:21:30;;;;;;;4.62;3.45;;;;;;;23.94;63.13;100629.22;5363877;33;33929;-87
2022/08/03 06:24:32;;;;;;;5.30;3.60;;;;;;;24.13;62.23;100633.28;5377170;27;34150;-87
2022/08/03 06:27:38;;;;;;;4.43;3.80;;;;;;;24.26;61.15;100633.91;5362785;33;33611;-87
2022/08/03 06:30:41;;;;;;;4.55;3.83;;;;;;;24.39;60.50;100628.78;5363266;33;35054;-87
2022/08/03 06:33:44;;;;;;;4.87;3.83;;;;;;;24.36;60.57;100628.47;5363244;33;34278;-87
2022/08/03 06:37:07;;;;;;;5.95;4.10;;;;;;;24.50;60.39;100626.97;5347096;33;32993;-87
2022/08/03 06:40:17;;;;;;;4.50;4.10;;;;;;;24.63;59.71;100626.53;5389446;27;35390;-87
2022/08/03 06:43:27;;;;;;;5.68;3.95;;;;;;;24.91;59.50;100629.97;5377377;27;32575;-87
2022/08/03 06:46:37;;;;;;;4.30;3.85;;;;;;;25.16;58.92;100634.00;5361002;33;34648;-87
2022/08/03 06:49:40;;;;;;;4.30;3.90;;;;;;;25.31;57.22;100632.12;5408186;27;34147;-87
2022/08/03 06:52:43;;;;;;;4.72;4.10;;;;;;;25.44;56.55;100633.53;5354696;33;33211;-87
2022/08/03 06:55:46;;;;;;;8.60;4.10;;;;;;;25.54;55.20;100627.25;5378788;27;34591;-87
2022/08/03 06:58:55;;;;;;;5.05;4.32;;;;;;;25.61;55.68;100627.00;5371244;33;34384;-87
2022/08/03 07:01:58;;;;;;;4.53;4.03;;;;;;;25.79;54.85;100626.47;5375447;33;35140;-87
2022/08/03 07:05:01;;;;;;;4.78;4.28;;;;;;;25.95;54.60;100632.88;5405950;27;33721;-87
2022/08/03 07:08:04;;;;;;;4.55;3.97;;;;;;;26.00;52.94;100632.88;5357158;33;32216;-86
2022/08/03 07:11:07;;;;;;;4.75;4.25;;;;;;;26.16;53.05;100625.44;5370835;33;35386;-87
2022/08/03 07:14:10;;;;;;;6.15;4.32;;;;;;;26.40;51.23;100625.72;5363465;33;34021;-87
2022/08/03 07:17:13;;;;;;;7.70;4.62;;;;;;;26.45;51.70;100623.78;5362303;33;35343;-87
2022/08/03 07:20:17;;;;;;;5.53;4.37;;;;;;;26.49;51.08;100631.50;5351223;33;35486;-88
2022/08/03 07:23:19;;;;;;;4.57;3.87;;;;;;;26.69;50.76;100631.50;5347313;33;35278;-91
2022/08/03 07:26:38;;;;;;;9.55;4.78;;;;;;;26.85;50.26;100630.37;5366009;27;34233;31
2022/08/03 07:29:40;;;;;;;4.57;4.18;;;;;;;26.97;50.03;100627.31;5341779;33;33685;-86
2022/08/03 07:32:43;;;;;;;5.43;4.28;;;;;;;26.99;49.98;100635.28;5331210;33;33434;-87
2022/08/03 07:35:52;;;;;;;9.23;7.50;;;;;;;26.97;49.21;100629.22;5330691;33;32603;-87
2022/08/03 07:38:56;;;;;;;6.78;4.60;;;;;;;27.03;49.29;100623.41;5331145;33;33324;-87
2022/08/03 07:41:59;;;;;;;7.10;4.03;;;;;;;27.07;50.11;100629.19;5344378;33;33423;-86
2022/08/03 07:45:02;;;;;;;7.65;4.32;;;;;;;27.18;49.32;100628.06;5331052;33;32951;-87
2022/08/03 07:48:05;;;;;;;5.50;3.87;;;;;;;27.40;48.97;100626.87;5330926;33;33495;-87
2022/08/03 07:51:14;;;;;;;4.72;4.18;;;;;;;27.50;48.44;100622.12;5331184;33;32927;-87
2022/08/03 07:54:16;;;;;;;5.30;3.75;;;;;;;27.68;48.13;100620.63;5343831;33;35352;-87
2022/08/03 07:57:19;;;;;;;5.90;4.00;;;;;;;27.86;48.08;100623.87;5337363;33;33033;-87
2022/08/03 08:00:22;;;;;;;4.57;3.87;;;;;;;27.95;47.84;100617.41;5348729;33;33144;-87
2022/08/03 08:03:25;;;;;;;6.10;4.22;;;;;;;28.05;46.67;100616.50;5354052;33;32480;-87
2022/08/03 08:06:28;;;;;;;5.45;4.20;;;;;;;28.01;46.89;100619.03;5362397;33;34607;-87
2022/08/03 08:09:31;;;;;;;4.78;4.22;;;;;;;27.98;46.40;100624.31;5349216;33;33616;-87
2022/08/03 08:12:35;;;;;;;3.83;3.47;;;;;;;28.11;46.09;100615.38;5362425;33;33604;-87
2022/08/03 08:15:38;;;;;;;6.55;3.97;;;;;;;28.21;46.00;100612.50;5361478;33;34157;-87
2022/08/03 08:18:45;;;;;;;7.43;4.05;;;;;;;28.04;45.68;100612.09;5347750;33;34275;-87
2022/08/03 08:21:48;;;;;;;5.47;4.12;;;;;;;28.18;46.00;100620.56;5374257;27;34186;-86
2022/08/03 08:25:04;;;;;;;5.45;4.28;;;;;;;28.27;45.15;100616.06;5389729;27;33812;-86
2022/08/03 08:28:07;;;;;;;4.78;4.18;;;;;;;28.56;44.81;100620.81;5348507;33;33643;-87
2022/08/03 08:31:29;;;;;;;6.22;4.00;;;;;;;28.74;44.18;100622.84;5361989;33;33792;-87
2022/08/03 08:34:32;;;;;;;4.60;4.00;;;;;;;28.48;43.85;100620.31;5418427;27;33676;-86
2022/08/03 08:37:35;;;;;;;4.72;4.12;;;;;;;28.59;43.33;100615.50;5373798;33;35040;-87
2022/08/03 08:40:39;;;;;;;5.30;4.10;;;;;;;28.55;43.34;100622.78;5372378;33;33698;-87
2022/08/03 08:43:44;;;;;;;6.10;3.58;;;;;;;28.51;43.00;100618.09;5362297;33;34036;-87
2022/08/03 08:46:48;;;;;;;7.87;4.05;;;;;;;28.67;43.70;100614.88;5362100;33;34098;-87
2022/08/03 08:49:56;;;;;;;4.35;3.95;;;;;;;28.85;42.81;100612.47;5349276;28;32283;-87
2022/08/03 08:53:12;;;;;;;5.78;5.20;;;;;;;28.86;42.13;100614.94;5330417;33;32716;-87
2022/08/03 08:56:24;;;;;;;7.72;4.22;;;;;;;28.98;42.77;100606.22;5330389;33;32272;-87
2022/08/03 08:59:31;;;;;;;4.35;3.70;;;;;;;29.32;41.04;100608.03;5354528;33;34597;-87
2022/08/03 09:02:51;;;;;;;4.62;4.10;;;;;;;29.17;41.12;100602.72;5353313;33;32667;-87
2022/08/03 09:05:54;;;;;;;5.93;4.10;;;;;;;29.26;42.47;100598.16;5364690;33;34349;-87
2022/08/03 09:08:58;;;;;;;4.25;3.85;;;;;;;29.23;41.05;100604.28;5425246;27;33317;-86
2022/08/03 09:12:01;;;;;;;6.30;4.43;;;;;;;29.20;41.20;100600.16;5357146;33;33909;-87
2022/08/03 09:15:30;;;;;;;4.50;4.10;;;;;;;29.33;41.64;100588.31;5361146;33;34116;-87
2022/08/03 09:18:33;;;;;;;4.28;3.62;;;;;;;29.49;41.19;100597.28;5348711;33;32689;-87
2022/08/03 09:21:35;;;;;;;4.68;4.28;;;;;;;29.66;40.71;100594.00;5347614;33;32730;-86
2022/08/03 09:24:57;;;;;;;6.55;4.75;;;;;;;29.81;41.02;100587.41;5361379;33;33698;-87
2022/08/03 09:28:19;;;;;;;5.43;3.72;;;;;;;29.71;40.46;100590.31;5360494;33;34011;-86
2022/08/03 09:31:45;;;;;;;5.00;3.67;;;;;;;29.87;40.44;100591.75;5363915;33;33661;-86
2022/08/03 09:34:50;;;;;;;3.92;3.50;;;;;;;29.97;38.91;100586.00;5360881;33;34609;-91
2022/08/03 09:38:12;;;;;;;5.70;4.00;;;;;;;29.87;38.99;100596.47;5360989;33;34619;-87
2022/08/03 09:41:18;;;;;;;5.53;3.70;;;;;;;30.44;38.25;100577.72;5361213;33;34206;-87
2022/08/03 09:44:33;;;;;;;5.10;3.80;;;;;;;30.61;37.68;100585.47;5360985;33;35229;-87
2022/08/03 09:47:36;;;;;;;4.65;3.40;;;;;;;30.43;37.54;100584.44;5360597;33;35057;-87
2022/08/03 09:50:49;;;;;;;6.85;5.20;;;;;;;30.43;37.78;100574.12;5347865;33;32548;-87
2022/08/03 09:54:12;;;;;;;4.62;3.58;;;;;;;30.50;38.23;100573.72;5361170;33;34076;-87
2022/08/03 09:57:24;;;;;;;3.95;3.53;;;;;;;30.60;37.29;100569.94;5360298;33;34701;-87
2022/08/03 10:00:27;;;;;;;3.50;2.95;;;;;;;30.76;35.69;100573.22;5360357;33;33600;-87
2022/08/03 10:03:33;;;;;;;4.70;2.97;;;;;;;31.07;35.08;100568.72;5363630;33;34036;-85
2022/08/03 10:06:36;;;;;;;7.30;3.55;;;;;;;30.91;35.27;100562.63;5362244;33;33594;-85
2022/08/03 10:09:56;;;;;;;3.28;2.97;;;;;;;31.13;36.17;100566.66;5347024;33;33609;-86
2022/08/03 10:12:59;;;;;;;3.15;2.85;;;;;;;31.16;35.27;100555.72;5360883;33;35251;-87
2022/08/03 10:16:03;;;;;;;4.25;2.97;;;;;;;31.27;34.63;100548.00;5363808;33;33942;-87
2022/08/03 10:19:25;;;;;;;4.95;3.20;;;;;;;31.39;34.76;100548.28;5336006;33;32211;-87
2022/08/03 10:22:32;;;;;;;3.28;2.97;;;;;;;31.61;35.01;100544.69;5342322;33;33739;-87
2022/08/03 10:25:40;;;;;;;3.42;2.90;;;;;;;31.88;33.85;100548.50;5342047;33;35298;-90
2022/08/03 10:28:50;;;;;;;3.35;2.60;;;;;;;32.19;34.05;100543.00;5342172;33;35516;-91
2022/08/03 10:31:57;;;;;;;4.25;3.15;;;;;;;32.25;33.19;100536.16;5342275;33;34884;-87
2022/08/03 10:35:06;;;;;;;3.33;3.03;;;;;;;31.78;32.86;100534.84;5342227;33;33879;-87
2022/08/03 10:38:31;;;;;;;3.20;2.90;;;;;;;31.81;33.45;100529.47;5329143;33;33295;-87
2022/08/03 10:41:38;;;;;;;3.50;2.78;;;;;;;32.40;33.83;100536.88;5341248;33;33342;-85
2022/08/03 10:44:41;;;;;;;4.30;2.97;;;;;;;32.51;32.14;100539.09;5331412;33;33075;-85
2022/08/03 10:47:47;;;;;;;2.83;2.62;;;;;;;32.90;31.49;100533.81;5344758;33;33604;-85
2022/08/03 10:50:50;;;;;;;3.30;3.00;;;;;;;33.22;30.60;100523.38;5329265;33;32890;-85
2022/08/03 10:53:53;;;;;;;3.10;2.80;;;;;;;33.17;30.68;100516.84;5342562;33;34185;-85
2022/08/03 11:00:25;;;;;;;3.17;2.97;;;;;;;34.00;30.85;100515.00;5347997;33;34194;-85
2022/08/03 11:03:31;;;;;;;3.30;2.90;;;;;;;33.93;29.74;100509.91;5330492;33;32333;-85
2022/08/03 11:06:34;;;;;;;3.90;2.70;;;;;;;33.59;29.96;100503.22;5330916;33;33104;-85
2022/08/03 11:09:41;;;;;;;4.50;2.60;;;;;;;33.88;29.78;100501.72;5344627;33;33571;-86
2022/08/03 11:12:45;;;;;;;3.12;2.83;;;;;;;34.43;29.59;100500.91;5344415;33;33539;-86
2022/08/03 11:15:51;;;;;;;3.12;2.80;;;;;;;34.96;28.23;100496.69;5330620;33;32243;-85
2022/08/03 11:18:56;;;;;;;2.78;2.33;;;;;;;35.49;27.51;100485.09;5343111;33;34049;-85
2022/08/03 11:21:58;;;;;;;3.72;2.80;;;;;;;36.06;25.97;100482.41;5343690;33;33849;-86
2022/08/03 11:25:01;;;;;;;2.45;2.25;;;;;;;36.93;24.92;100486.06;5343721;33;33952;-86
2022/08/03 11:28:24;;;;;;;2.47;2.30;;;;;;;37.36;24.15;100485.38;5338221;33;33036;-85
2022/08/03 11:31:28;;;;;;;2.37;2.17;;;;;;;37.57;23.48;100476.78;5350501;33;34919;-86
2022/08/03 11:35:22;;;;;;;2.10;2.00;;;;;;;37.94;22.81;100472.97;5335937;33;32315;-86
2022/08/03 11:38:25;;;;;;;2.97;2.20;;;;;;;38.69;22.58;100472.88;5326133;33;32869;-86
2022/08/03 11:41:32;;;;;;;2.12;1.92;;;;;;;38.81;21.60;100471.94;5338259;33;33185;-86
2022/08/03 11:44:47;;;;;;;1.92;1.83;;;;;;;39.00;21.06;100457.91;5352696;33;33861;-86
2022/08/03 11:47:53;;;;;;;5.85;2.00;;;;;;;39.87;20.56;100458.50;5342211;33;32234;-86
2022/08/03 11:50:56;;;;;;;1.30;1.20;;;;;;;40.57;19.59;100462.09;5343661;33;32520;-86
2022/08/03 11:54:01;;;;;;;1.83;1.73;;;;;;;41.07;18.24;100454.41;5356044;27;33686;-85
2022/08/03 11:57:04;;;;;;;1.98;1.87;;;;;;;41.10;18.82;100453.63;5351831;33;33868;-86
2022/08/03 12:00:29;;;;;;;2.97;1.75;;;;;;;42.24;18.13;100458.88;5332089;33;33372;-86
2022/08/03 12:03:33;;;;;;;1.52;1.42;;;;;;;42.84;17.55;100450.06;5392195;27;34489;-86
2022/08/03 12:06:55;;;;;;;1.42;1.33;;;;;;;42.81;16.58;100450.84;5345435;33;32645;-86
2022/08/03 12:10:09;;;;;;;1.70;1.60;;;;;;;42.98;16.22;100447.28;5417888;27;33659;-87
2022/08/03 12:13:13;;;;;;;1.80;1.70;;;;;;;42.77;16.75;100447.19;5396019;27;35445;-86
2022/08/03 12:16:38;;;;;;;2.60;2.33;;;;;;;41.79;17.64;100443.91;5395404;27;32586;-87
2022/08/03 12:19:41;;;;;;;2.28;1.98;;;;;;;37.98;21.38;100445.78;5409057;27;30865;-86
2022/08/03 12:22:44;;;;;;;1.92;1.83;;;;;;;36.50;22.82;100445.38;5380499;27;34377;-85
2022/08/03 12:25:47;;;;;;;2.22;2.03;;;;;;;35.80;24.07;100445.41;5360754;33;32599;-86
2022/08/03 12:28:51;;;;;;;1.80;1.70;;;;;;;37.07;22.80;100438.81;5401008;27;32398;-85
2022/08/03 12:31:54;;;;;;;3.22;2.00;;;;;;;39.74;19.64;100422.38;5318364;33;32492;-86
2022/08/03 12:34:59;;;;;;;2.03;1.92;;;;;;;42.29;17.77;100418.91;5316198;33;32987;-86
2022/08/03 12:38:21;;;;;;;1.83;1.73;;;;;;;43.33;16.89;100417.50;5369051;27;32217;-86
2022/08/03 12:41:34;;;;;;;1.80;1.70;;;;;;;43.75;15.96;100415.97;5391010;27;32577;-86
2022/08/03 12:44:36;;;;;;;2.53;1.75;;;;;;;43.36;16.35;100415.88;5416301;27;33659;-87
2022/08/03 12:48:10;;;;;;;2.08;1.87;;;;;;;42.54;16.88;100407.78;5405693;27;34020;-86
2022/08/03 12:51:13;;;;;;;2.20;2.00;;;;;;;40.43;19.01;100411.91;5337572;33;32722;-86
2022/08/03 12:54:21;;;;;;;1.62;1.52;;;;;;;41.54;18.60;100407.75;5374995;27;34711;-85
2022/08/03 12:57:41;;;;;;;2.78;2.40;;;;;;;42.05;18.14;100400.53;5372463;33;33748;-86
2022/08/03 13:00:54;;;;;;;1.90;1.80;;;;;;;39.15;20.44;100408.34;5348245;33;34988;-86
2022/08/03 13:03:57;;;;;;;2.03;1.92;;;;;;;37.66;22.13;100406.37;5352392;33;33877;-86
2022/08/03 13:07:08;;;;;;;2.65;2.12;;;;;;;37.62;21.94;100406.28;5338361;33;34023;-89
2022/08/03 13:10:30;;;;;;;1.98;1.87;;;;;;;40.01;19.58;100407.16;5317310;33;32359;-86
2022/08/03 13:13:37;;;;;;;2.17;1.80;;;;;;;42.01;17.41;100397.69;5342441;33;34404;-86
2022/08/03 13:16:40;;;;;;;2.05;1.85;;;;;;;43.45;15.95;100388.78;5342328;33;34935;-86
2022/08/03 13:19:43;;;;;;;2.05;1.90;;;;;;;44.65;15.08;100382.69;5388552;27;34565;-85
2022/08/03 13:22:47;;;;;;;1.95;1.80;;;;;;;45.90;14.05;100384.88;5359596;27;34844;-87
2022/08/03 13:25:50;;;;;;;1.87;1.77;;;;;;;46.01;13.42;100369.72;5341125;33;34315;-86
2022/08/03 13:28:58;;;;;;;1.90;1.80;;;;;;;46.81;13.03;100369.28;5342531;33;34164;-86
